Home > Products > Valid Products > TAF

000
FTUS43 KJKL 070538
TAFSME
TAF
KSME 070538Z 0706/0806 00000KT P6SM SCT250
     FM071600 24006KT P6SM SCT100 BKN250=



000
FTUS43 KJKL 070538
TAFJKL
TAF
KJKL 070538Z 0706/0806 VRB03KT P6SM SCT250
     FM071800 22006KT P6SM SCT100=



000
FTUS43 KJKL 070538
TAFLOZ
TAF
KLOZ 070538Z 0706/0806 VRB03KT P6SM SCT250
     FM071600 24007KT P6SM SCT100 BKN250=



000
FTUS43 KJKL 070538
TAFLOZ
TAF
KLOZ 070538Z 0706/0806 VRB03KT P6SM SCT250
     FM071600 24007KT P6SM SCT100 BKN250=



000
FTUS43 KJKL 070538
TAFSME
TAF
KSME 070538Z 0706/0806 00000KT P6SM SCT250
     FM071600 24006KT P6SM SCT100 BKN250=



000
FTUS43 KJKL 070538
TAFJKL
TAF
KJKL 070538Z 0706/0806 VRB03KT P6SM SCT250
     FM071800 22006KT P6SM SCT100=



000
FTUS43 KJKL 062322 CCA
TAFSME
TAF COR
KSME 062322Z 0700/0724 00000KT P6SM SCT250
     FM071600 24006KT P6SM FEW250=



000
FTUS43 KJKL 062322 CCA
TAFLOZ
TAF COR
KLOZ 062322Z 0700/0724 VRB03KT P6SM SCT250
     FM071600 24007KT P6SM FEW250=



000
FTUS43 KJKL 062322 CCA
TAFLOZ
TAF COR
KLOZ 062322Z 0700/0724 VRB03KT P6SM SCT250
     FM071600 24007KT P6SM FEW250=



000
FTUS43 KJKL 062322 CCA
TAFJKL
TAF COR
KJKL 062322Z 0700/0724 VRB03KT P6SM SCT250=



000
FTUS43 KJKL 062322 CCA
TAFSME
TAF COR
KSME 062322Z 0700/0724 00000KT P6SM SCT250
     FM071600 24006KT P6SM FEW250=



000
FTUS43 KJKL 062322 CCA
TAFJKL
TAF COR
KJKL 062322Z 0700/0724 VRB03KT P6SM SCT250=



000
FTUS43 KJKL 061720
TAFJKL
TAF
KJKL 061720Z 0618/0718 VRB03KT P6SM SCT250
     FM062200 VRB03KT P6SM BKN050
     FM070200 VRB03KT P6SM FEW250=



000
FTUS43 KJKL 061720
TAFSME
TAF
KSME 061720Z 0618/0718 23006KT P6SM SCT250
     FM062200 VRB03KT P6SM BKN050
     FM070200 VRB03KT P6SM FEW250=



000
FTUS43 KJKL 061720
TAFLOZ
TAF
KLOZ 061720Z 0618/0718 23007KT P6SM SCT250
     FM062200 VRB03KT P6SM BKN050
     FM070200 VRB03KT P6SM FEW250=



000
FTUS43 KJKL 061136
TAFLOZ
TAF
KLOZ 061136Z 0612/0712 00000KT P6SM SCT250
     FM061600 23007KT P6SM SCT250
     FM062200 VRB03KT P6SM BKN050
     FM070200 VRB03KT P6SM FEW250=



000
FTUS43 KJKL 061136
TAFSME
TAF
KSME 061136Z 0612/0712 00000KT P6SM SCT250
     FM061600 23006KT P6SM SCT250
     FM062200 VRB03KT P6SM BKN050
     FM070200 VRB03KT P6SM FEW250=



000
FTUS43 KJKL 061136
TAFJKL
TAF
KJKL 061136Z 0612/0712 VRB03KT P6SM SCT250
     FM062200 VRB03KT P6SM BKN050
     FM070200 VRB03KT P6SM FEW250=



000
FTUS43 KJKL 061136
TAFLOZ
TAF
KLOZ 061136Z 0612/0712 00000KT P6SM SCT250
     FM061600 23007KT P6SM SCT250
     FM062200 VRB03KT P6SM BKN050
     FM070200 VRB03KT P6SM FEW250=



000
FTUS43 KJKL 061136
TAFJKL
TAF
KJKL 061136Z 0612/0712 VRB03KT P6SM SCT250
     FM062200 VRB03KT P6SM BKN050
     FM070200 VRB03KT P6SM FEW250=



000
FTUS43 KJKL 061136
TAFSME
TAF
KSME 061136Z 0612/0712 00000KT P6SM SCT250
     FM061600 23006KT P6SM SCT250
     FM062200 VRB03KT P6SM BKN050
     FM070200 VRB03KT P6SM FEW250=



000
FTUS43 KJKL 060525
TAFJKL
TAF
KJKL 060525Z 0606/0706 VRB03KT P6SM SCT250=



000
FTUS43 KJKL 060525
TAFLOZ
TAF
KLOZ 060525Z 0606/0706 00000KT P6SM SCT250
     FM061600 23007KT P6SM SCT250
     FM062200 VRB03KT P6SM BKN050=



000
FTUS43 KJKL 060525
TAFSME
TAF
KSME 060525Z 0606/0706 00000KT P6SM SCT250
     FM061600 23006KT P6SM SCT250
     FM062200 VRB03KT P6SM BKN050=



000
FTUS43 KJKL 051720
TAFJKL
TAF
KJKL 051720Z 0518/0618 VRB04KT P6SM SKC=



000
FTUS43 KJKL 051720
TAFSME
TAF
KSME 051720Z 0518/0618 VRB05KT P6SM SKC=



000
FTUS43 KJKL 051720
TAFSME
TAF
KSME 051720Z 0518/0618 VRB05KT P6SM SKC=



000
FTUS43 KJKL 051720
TAFJKL
TAF
KJKL 051720Z 0518/0618 VRB04KT P6SM SKC=



000
FTUS43 KJKL 051720
TAFLOZ
TAF
KLOZ 051720Z 0518/0618 VRB04KT P6SM SKC=



000
FTUS43 KJKL 051720
TAFLOZ
TAF
KLOZ 051720Z 0518/0618 VRB04KT P6SM SKC=



000
FTUS43 KJKL 051129
TAFJKL
TAF
KJKL 051129Z 0512/0612 VRB04KT P6SM SKC=



000
FTUS43 KJKL 051129
TAFLOZ
TAF
KLOZ 051129Z 0512/0612 VRB04KT P6SM SKC=



000
FTUS43 KJKL 051129
TAFSME
TAF
KSME 051129Z 0512/0612 VRB05KT P6SM SKC=



000
FTUS43 KJKL 051129
TAFLOZ
TAF
KLOZ 051129Z 0512/0612 VRB04KT P6SM SKC=



000
FTUS43 KJKL 051129
TAFJKL
TAF
KJKL 051129Z 0512/0612 VRB04KT P6SM SKC=



000
FTUS43 KJKL 051129
TAFSME
TAF
KSME 051129Z 0512/0612 VRB05KT P6SM SKC=



000
FTUS43 KJKL 050537
TAFLOZ
TAF
KLOZ 050537Z 0506/0606 31005KT P6SM SCT035
     FM050700 VRB04KT P6SM SKC=



000
FTUS43 KJKL 050537
TAFSME
TAF
KSME 050537Z 0506/0606 VRB05KT P6SM SKC=



000
FTUS43 KJKL 050537
TAFJKL
TAF
KJKL 050537Z 0506/0606 31005KT P6SM OVC040
     FM050700 30003KT P6SM SCT035
     FM050900 VRB04KT P6SM SKC=



000
FTUS43 KJKL 050537
TAFSME
TAF
KSME 050537Z 0506/0606 VRB05KT P6SM SKC=



000
FTUS43 KJKL 050537
TAFJKL
TAF
KJKL 050537Z 0506/0606 31005KT P6SM OVC040
     FM050700 30003KT P6SM SCT035
     FM050900 VRB04KT P6SM SKC=



000
FTUS43 KJKL 050537
TAFLOZ
TAF
KLOZ 050537Z 0506/0606 31005KT P6SM SCT035
     FM050700 VRB04KT P6SM SKC=



000
FTUS43 KJKL 042305 AAA
TAFSME
TAF AMD
KSME 042305Z 0423/0518 33005KT P6SM OVC040
     FM050000 VRB03KT P6SM SCT040
     FM050100 VRB03KT P6SM SKC=



000
FTUS43 KJKL 042305 AAA
TAFSME
TAF AMD
KSME 042305Z 0423/0518 33005KT P6SM OVC040
     FM050000 VRB03KT P6SM SCT040
     FM050100 VRB03KT P6SM SKC=



000
FTUS43 KJKL 042304 AAA
TAFLOZ
TAF AMD
KLOZ 042304Z 0423/0518 33006KT P6SM OVC040
     FM050100 33006KT P6SM SCT040
     FM050200 33005KT P6SM SKC=



000
FTUS43 KJKL 042304 AAA
TAFLOZ
TAF AMD
KLOZ 042304Z 0423/0518 33006KT P6SM OVC040
     FM050100 33006KT P6SM SCT040
     FM050200 33005KT P6SM SKC=



000
FTUS43 KJKL 042302 AAB
TAFJKL
TAF AMD
KJKL 042302Z 0423/0518 29005KT P6SM OVC035
     FM050030 VRB03KT P6SM OVC028
     FM050300 VRB03KT P6SM SCT030
     FM050400 VRB03KT P6SM SKC=



000
FTUS43 KJKL 042302 AAB
TAFJKL
TAF AMD
KJKL 042302Z 0423/0518 29005KT P6SM OVC035
     FM050030 VRB03KT P6SM OVC028
     FM050300 VRB03KT P6SM SCT030
     FM050400 VRB03KT P6SM SKC=



000
FTUS43 KJKL 041739
TAFJKL
TAF
KJKL 041739Z 0418/0518 31005KT P6SM BKN028
     FM042100 29005KT P6SM SCT050=



000
FTUS43 KJKL 041739
TAFSME
TAF
KSME 041739Z 0418/0518 30006KT P6SM BKN030
     FM042000 33005KT P6SM SCT050=



000
FTUS43 KJKL 041739
TAFLOZ
TAF
KLOZ 041739Z 0418/0518 33005KT P6SM BKN030
     FM042000 33006KT P6SM SCT050=



000
FTUS43 KJKL 041137
TAFSME
TAF
KSME 041137Z 0412/0512 31006KT P6SM BKN035
     FM041600 31004KT P6SM SCT035=



000
FTUS43 KJKL 041137
TAFLOZ
TAF
KLOZ 041137Z 0412/0512 31005KT P6SM BKN035
     FM041600 31005KT P6SM SCT035=



000
FTUS43 KJKL 041137
TAFJKL
TAF
KJKL 041137Z 0412/0512 VRB03KT P6SM OVC030
     FM041500 31005KT P6SM SCT035=



000
FTUS43 KJKL 041137
TAFJKL
TAF
KJKL 041137Z 0412/0512 VRB03KT P6SM OVC030
     FM041500 31005KT P6SM SCT035=



000
FTUS43 KJKL 041137
TAFLOZ
TAF
KLOZ 041137Z 0412/0512 31005KT P6SM BKN035
     FM041600 31005KT P6SM SCT035=



000
FTUS43 KJKL 041137
TAFSME
TAF
KSME 041137Z 0412/0512 31006KT P6SM BKN035
     FM041600 31004KT P6SM SCT035=



000
FTUS43 KJKL 040941 AAB
TAFJKL
TAF AMD
KJKL 040941Z 0410/0506 VRB03KT P6SM OVC035
     FM041500 31005KT P6SM SCT035=



000
FTUS43 KJKL 040941 AAA
TAFSME
TAF AMD
KSME 040941Z 0410/0506 31006KT P6SM BKN040
     FM041600 31004KT P6SM SCT035=



000
FTUS43 KJKL 040939 AAA
TAFJKL
TAF AMD
KJKL 040939Z 0410/0506 29005G15KT P6SM OVC035
     FM041500 31005KT P6SM SCT035=



000
FTUS43 KJKL 040939 CCA
TAFJKL
TAF COR
KJKL 040939Z 0410/0506 VRB03KT P6SM OVC035
     FM041500 31005KT P6SM SCT035=



000
FTUS43 KJKL 040939 AAA
TAFJKL
TAF AMD
KJKL 040939Z 0410/0506 29005G15KT P6SM OVC035
     FM041500 31005KT P6SM SCT035=



    US Dept of Commerce
    National Oceanic and Atmospheric Administration
    National Weather Service
    1325 East West Highway
    Silver Spring, MD 20910
    Page Author: NWS Internet Services Team
Disclaimer
Information Quality
Credits
Glossary
Privacy Policy
Freedom of Information Act (FOIA)
About Us
Career Opportunities